Custer, Michigan
Current Conditions -  °F | °C
As of 6:35 AM on Friday 24 Oct 2014 (Local Time) from KLDM Reporting Station
Overcast Overcast  
Wind Chill: 52°   Ceiling: 1900
Heat Index: 52°   Visibility: 7mi
Dew Point: 49°   Wind: 3mph
Humidity: 91%   Direction: 260°W
Pressure: 30.03"   Gusts: NA
Location:  43.95°N, 86.22°W
Report Text: KLDM 241035Z AUTO 26003KT 7SM SCT011 BKN019 OVC023 11/10 A3003 RMK AO2 T01100096
Loading
Personal Weather Stations






























Interactive Weather Map New forecast layout! Learn more

10-Day Weather Forecast

Advertisements
Track Severe Weather on mobile